Sunday, November 23, 2014
22:22 UTC
  |  Log In   |  Register Free
Airport Search:

Livermore Municipal Airport
(KLVK)

FAA data valid effective November 13, 2014 - January 08, 2015 (unless otherwise noted).

 
 
 
 
 
 
 
 
 
 
 
 
 
 

Current Aviation Weather for Livermore Municipal Airport (KLVK)

The most recent METAR observation for KLVK was updated at: 2120
METAR Summary (Translated METAR)
KLVK
232053Z 06008KT 10SM CLR 18/03 A3029 RMK AO2 SLP255 T01780033 58016 $
KHWD
232154Z 28006KT 10SM CLR 14/07 A3028 RMK AO2 SLP264 T01390072
(14.5 nm SW from KLVK)
KOAK
232053Z 21005KT 10SM BKN100 BKN250 16/06 A3029 RMK AO2 SLP256 T01560061 58019 $
(19.1 nm NW from KLVK)
TAF Summary (Translated TAF)
KOAK
(19.1 nm NW from KLVK)
231739Z 2318/2424 31008KT P6SM SCT200 FM240300 29007KT P6SM SCT200 FM241800 28005KT P6SM FEW250
  Airport Weather Conditions for KLVK

 Current Weather at LVK
64° F
Fair
East winds at 8.1 mph
LVK NOAA Radar

Pressure: 30.28 in
Humidity: 37%
Wind: East at 8.1 MPH (7 KT)
Dew Point: 37.0°F
Visibility: 10.00 mi


Airport Weather Forecast for KLVK

Translated METAR and TAF for KLVK
Translated METAR for KLVK (2217 UTC 23 November 2014)
found at http://aviationweather.gov/adds/metars/
 
METAR text: KLVK 232153Z 08007KT 10SM CLR 18/03 A3028 RMK AO2 SLP253 T01780028 $
Conditions at: KLVK (LIVERMORE , CA, US) observed 2153 UTC 23 November 2014
Temperature: 17.8°C (64°F)
Dewpoint: 2.8°C (37°F) [RH = 37%]
Pressure (altimeter): 30.28 inches Hg (1025.5 mb)
[Sea-level pressure: 1025.3 mb]
Winds: from the E (80 degrees) at 8 MPH (7 knots; 3.6 m/s)
Visibility: 10 or more miles (16+ km)
Ceiling: at least 12,000 feet AGL
Clouds: sky clear below 12,000 feet AGL
Weather:
SOME DATA ABOVE MAY BE INACCURATE!!!
"$" is an indication the sensor requires maintenance
Translated TAF for KLVK

There is no translated TAF available for this airport

Find All Airport Services Find A Hotel Find A Rental Car Find A Golf Course Find A Restaurant $100 Hamburger



FBO's on the Field
FBO Company Facility Photos Services Transportation Aviation Fuel Prices: Prices include tax
Catering Weather Repair Courtesy Rental Type 100LL JetA JetA+ MOGAS 8087
 
Livermore Municipal Airport

This FBO has not yet been rated
FS:Ascent
Last Updated: Nov-12
Login to update fuel prices
SS:
Contact Livermore Municipal AirportMore FBO Information
 
Add another FBO Facility Photos Catering Weather Repair Courtesy Rental Type 100LL JetA JetA+ MOGAS 8087
Services Transportation Aviation Fuel Prices: Prices include tax


model-print
model-print
model-print
model-print